createdAt,value
2023-04-12T00:00:27.248Z,1.60
2023-04-12T00:02:55.221Z,2.07
2023-04-12T00:05:27.470Z,1.97
2023-04-12T00:07:55.836Z,1.80
2023-04-12T00:10:24.038Z,2.00
2023-04-12T00:12:51.940Z,1.33
2023-04-12T00:15:19.908Z,1.70
2023-04-12T00:17:49.308Z,1.40
2023-04-12T00:20:18.267Z,1.90
2023-04-12T00:22:46.263Z,1.70
2023-04-12T00:25:14.284Z,1.97
2023-04-12T00:27:42.197Z,1.90
2023-04-12T00:30:10.907Z,1.77
2023-04-12T00:32:38.883Z,1.90
2023-04-12T00:35:09.230Z,1.40
2023-04-12T00:37:38.801Z,1.70
2023-04-12T00:40:09.930Z,1.90
2023-04-12T00:42:38.046Z,1.70
2023-04-12T00:45:07.539Z,1.90
2023-04-12T00:47:36.568Z,1.57
2023-04-12T00:50:05.939Z,1.73
2023-04-12T00:52:35.821Z,1.83
2023-04-12T00:55:04.865Z,1.50
2023-04-12T00:57:36.649Z,1.63
2023-04-12T01:00:06.070Z,2.30
2023-04-12T01:02:34.805Z,1.47
2023-04-12T01:05:03.268Z,1.83
2023-04-12T01:07:45.052Z,2.00
2023-04-12T01:10:21.818Z,1.60
2023-04-12T01:12:56.766Z,1.60
2023-04-12T01:15:26.425Z,1.23
2023-04-12T01:17:58.918Z,1.70
2023-04-12T01:20:31.426Z,1.50
2023-04-12T01:23:14.754Z,1.70
2023-04-12T01:26:00.452Z,1.53
2023-04-12T01:28:34.442Z,1.47
2023-04-12T01:31:04.135Z,1.90
2023-04-12T01:33:32.550Z,1.30
2023-04-12T01:36:02.042Z,1.73
2023-04-12T01:38:30.226Z,1.63
2023-04-12T01:40:58.301Z,1.40
2023-04-12T01:43:26.433Z,1.80
2023-04-12T01:45:55.789Z,1.50
2023-04-12T01:48:25.025Z,1.70
2023-04-12T01:51:06.684Z,1.80
2023-04-12T01:53:38.831Z,1.83
2023-04-12T01:56:09.716Z,1.87
2023-04-12T01:58:39.090Z,1.40
2023-04-12T02:01:09.493Z,2.13
2023-04-12T02:03:38.723Z,1.70
2023-04-12T02:06:07.660Z,1.77
2023-04-12T02:08:35.844Z,1.63
2023-04-12T02:11:10.017Z,1.57
2023-04-12T02:13:38.034Z,1.77
2023-04-12T02:16:07.964Z,1.40
2023-04-12T02:18:37.343Z,1.80
2023-04-12T02:21:05.569Z,1.70
2023-04-12T02:23:33.491Z,1.63
2023-04-12T02:26:01.628Z,1.67
2023-04-12T02:28:29.560Z,1.80
2023-04-12T02:30:57.576Z,1.60
2023-04-12T02:33:28.335Z,1.50
2023-04-12T02:35:58.221Z,1.53
2023-04-12T02:38:26.673Z,1.57
2023-04-12T02:40:54.633Z,1.70
2023-04-12T02:43:22.518Z,1.50
2023-04-12T02:45:50.464Z,1.73
2023-04-12T02:48:18.386Z,1.47
2023-04-12T02:50:46.313Z,1.20
2023-04-12T02:53:16.873Z,1.63
2023-04-12T02:55:44.836Z,1.57
2023-04-12T02:58:12.904Z,1.60
2023-04-12T03:00:42.432Z,1.50
2023-04-12T03:03:10.479Z,1.70
2023-04-12T03:05:39.585Z,1.70
2023-04-12T03:08:07.841Z,1.70
2023-04-12T03:10:37.168Z,1.80
2023-04-12T03:13:05.730Z,1.90
2023-04-12T03:15:33.659Z,1.70
2023-04-12T03:18:01.778Z,1.90
2023-04-12T03:20:29.921Z,1.70
2023-04-12T03:22:57.817Z,1.80
2023-04-12T03:25:25.740Z,1.47
2023-04-12T03:27:55.028Z,1.47
2023-04-12T03:30:23.021Z,1.63
2023-04-12T03:32:51.007Z,1.17
2023-04-12T03:35:19.114Z,1.10
2023-04-12T03:37:47.066Z,1.40
2023-04-12T03:40:15.188Z,1.40
2023-04-12T03:42:43.107Z,1.60
2023-04-12T03:45:13.001Z,1.30
2023-04-12T03:47:40.952Z,1.10
2023-04-12T03:50:12.259Z,1.50
2023-04-12T03:52:40.937Z,1.63
2023-04-12T03:55:09.710Z,1.30
2023-04-12T03:57:37.889Z,1.40
2023-04-12T04:00:08.673Z,1.37
2023-04-12T04:02:38.578Z,1.47
2023-04-12T04:05:07.117Z,1.47
2023-04-12T04:07:36.661Z,1.43
2023-04-12T04:10:05.701Z,1.33
2023-04-12T04:12:33.648Z,1.60
2023-04-12T04:15:01.624Z,1.13
2023-04-12T04:17:29.562Z,1.40
2023-04-12T04:19:58.843Z,1.33
2023-04-12T04:22:26.756Z,1.10
2023-04-12T04:24:55.906Z,1.50
2023-04-12T04:27:23.842Z,1.07
2023-04-12T04:29:53.617Z,1.30
2023-04-12T04:32:21.613Z,1.53
2023-04-12T04:34:49.545Z,1.60
2023-04-12T04:37:19.902Z,0.83
2023-04-12T04:39:47.807Z,1.20
2023-04-12T04:42:15.745Z,1.40
2023-04-12T04:44:43.634Z,1.50
2023-04-12T04:47:11.861Z,1.30
2023-04-12T04:49:39.777Z,1.70
2023-04-12T04:52:08.777Z,1.50
2023-04-12T04:54:38.045Z,1.60
2023-04-12T04:57:08.027Z,1.40
2023-04-12T04:59:35.969Z,1.60
2023-04-12T05:02:03.885Z,1.40
2023-04-12T05:04:31.958Z,1.40
2023-04-12T05:06:59.871Z,1.07
2023-04-12T05:09:27.814Z,1.30
2023-04-12T05:11:57.088Z,1.43
2023-04-12T05:14:31.022Z,1.43
2023-04-12T05:17:09.505Z,1.13
2023-04-12T05:19:37.469Z,1.10
2023-04-12T05:22:05.357Z,1.13
2023-04-12T05:24:33.303Z,1.27
2023-04-12T05:27:02.566Z,1.30
2023-04-12T05:29:30.705Z,1.67
2023-04-12T05:31:59.477Z,1.20
2023-04-12T05:34:27.410Z,1.00
2023-04-12T05:36:55.397Z,1.30
2023-04-12T05:39:23.301Z,1.10
2023-04-12T05:41:51.585Z,1.30
2023-04-12T05:44:21.017Z,1.10
2023-04-12T05:46:49.048Z,1.60
2023-04-12T05:49:17.107Z,1.33
2023-04-12T05:51:45.057Z,1.87
2023-04-12T05:54:12.960Z,1.10
2023-04-12T05:56:41.038Z,1.10
2023-04-12T05:59:09.171Z,1.10
2023-04-12T06:01:42.917Z,1.00
2023-04-12T06:04:10.952Z,1.60
2023-04-12T06:06:38.983Z,1.00
2023-04-12T06:09:11.129Z,1.23
2023-04-12T06:11:39.418Z,1.27
2023-04-12T06:14:08.042Z,1.10
2023-04-12T06:16:40.016Z,1.07
2023-04-12T06:19:11.034Z,1.50
2023-04-12T06:21:39.094Z,1.10
2023-04-12T06:24:08.080Z,1.17
2023-04-12T06:26:39.682Z,1.50
2023-04-12T06:29:08.627Z,1.60
2023-04-12T06:31:37.958Z,1.50
2023-04-12T06:34:09.063Z,1.37
2023-04-12T06:36:37.508Z,1.63
2023-04-12T06:39:05.498Z,1.30
2023-04-12T06:41:33.481Z,1.23
2023-04-12T06:44:01.512Z,1.50
2023-04-12T06:46:29.957Z,1.70
2023-04-12T06:48:59.549Z,1.30
2023-04-12T06:51:28.186Z,1.80
2023-04-12T06:53:57.645Z,1.53
2023-04-12T06:56:25.910Z,1.20
2023-04-12T06:58:53.799Z,1.80
2023-04-12T07:01:21.834Z,1.43
2023-04-12T07:03:49.903Z,1.37
2023-04-12T07:06:25.665Z,1.63
2023-04-12T07:08:54.611Z,1.20
2023-04-12T07:11:23.936Z,1.20
2023-04-12T07:13:52.340Z,1.50
2023-04-12T07:16:20.417Z,1.47
2023-04-12T07:18:50.356Z,1.30
2023-04-12T07:21:19.697Z,1.33
2023-04-12T07:23:51.160Z,1.23
2023-04-12T07:26:19.325Z,1.30
2023-04-12T07:28:47.527Z,1.40
2023-04-12T07:31:15.520Z,1.37
2023-04-12T07:33:43.682Z,1.50
2023-04-12T07:36:12.293Z,1.23
2023-04-12T07:38:41.748Z,1.23
2023-04-12T07:41:11.060Z,1.33
2023-04-12T07:43:39.002Z,1.43
2023-04-12T07:46:08.860Z,1.07
2023-04-12T07:48:37.026Z,1.40
2023-04-12T07:51:05.930Z,1.20
2023-04-12T07:53:34.007Z,1.40
2023-04-12T07:56:05.211Z,1.40
2023-04-12T07:58:34.447Z,1.30
2023-04-12T08:01:05.829Z,1.27
2023-04-12T08:03:33.855Z,1.20
2023-04-12T08:06:01.934Z,1.40
2023-04-12T08:08:29.958Z,1.77
2023-04-12T08:10:57.883Z,1.10
2023-04-12T08:13:27.250Z,1.33
2023-04-12T08:15:55.346Z,1.20
2023-04-12T08:18:23.342Z,1.07
2023-04-12T08:20:51.322Z,1.40
2023-04-12T08:23:19.317Z,1.07
2023-04-12T08:25:47.267Z,1.40
2023-04-12T08:28:15.237Z,1.27
2023-04-12T08:30:44.879Z,1.40
2023-04-12T08:33:12.801Z,1.20
2023-04-12T08:35:41.180Z,1.00
2023-04-12T08:38:09.623Z,1.70
2023-04-12T08:40:38.557Z,1.33
2023-04-12T08:43:12.610Z,1.23
2023-04-12T08:45:40.572Z,1.60
2023-04-12T08:48:10.719Z,1.40
2023-04-12T08:50:38.860Z,1.23
2023-04-12T08:53:06.889Z,1.40
2023-04-12T08:55:35.204Z,1.23
2023-04-12T08:58:07.542Z,1.00
2023-04-12T09:00:35.830Z,1.23
2023-04-12T09:03:03.958Z,1.40
2023-04-12T09:05:33.941Z,1.60
2023-04-12T09:08:01.897Z,1.30
2023-04-12T09:10:34.332Z,1.30
2023-04-12T09:13:02.454Z,1.10
2023-04-12T09:15:30.435Z,1.20
2023-04-12T09:18:06.984Z,1.53
2023-04-12T09:20:36.783Z,1.37
2023-04-12T09:23:19.188Z,1.20
2023-04-12T09:25:48.607Z,1.30
2023-04-12T09:28:21.768Z,1.20
2023-04-12T09:30:52.502Z,1.53
2023-04-12T09:33:21.880Z,1.37
2023-04-12T09:35:51.864Z,1.57
2023-04-12T09:38:20.005Z,1.30
2023-04-12T09:40:48.641Z,1.03
2023-04-12T09:43:16.746Z,1.20
2023-04-12T09:45:45.176Z,1.53
2023-04-12T09:48:21.178Z,1.30
2023-04-12T09:50:49.301Z,1.63
2023-04-12T09:53:19.559Z,1.40
2023-04-12T09:55:48.894Z,1.50
2023-04-12T09:58:19.749Z,1.90
2023-04-12T10:00:48.393Z,1.37
2023-04-12T10:03:16.527Z,1.40
2023-04-12T10:05:44.517Z,1.50
2023-04-12T10:08:13.283Z,1.53
2023-04-12T10:10:43.615Z,1.60
2023-04-12T10:13:13.826Z,1.67
2023-04-12T10:15:42.722Z,1.60
2023-04-12T10:18:12.606Z,1.80
2023-04-12T10:20:41.786Z,1.70
2023-04-12T10:23:10.958Z,1.50
2023-04-12T10:25:40.005Z,1.57
2023-04-12T10:28:19.728Z,1.90
2023-04-12T10:30:48.282Z,1.50
2023-04-12T10:33:17.952Z,2.00
2023-04-12T10:35:54.425Z,1.90
2023-04-12T10:38:24.963Z,1.80
2023-04-12T10:41:18.096Z,1.90
2023-04-12T10:43:48.041Z,1.60
2023-04-12T10:46:51.215Z,2.07
2023-04-12T10:49:19.728Z,1.67
2023-04-12T10:52:13.270Z,1.90
2023-04-12T10:54:41.724Z,1.80
2023-04-12T10:57:43.690Z,1.80
2023-04-12T11:00:14.912Z,1.50
2023-04-12T11:03:05.879Z,1.70
2023-04-12T11:05:58.475Z,1.67
2023-04-12T11:08:27.420Z,1.50
2023-04-12T11:11:03.336Z,2.00
2023-04-12T11:13:35.871Z,1.50
2023-04-12T11:16:07.920Z,1.47
2023-04-12T11:18:36.583Z,1.73
2023-04-12T11:21:05.890Z,1.40
2023-04-12T11:23:36.348Z,2.00
2023-04-12T11:26:04.841Z,1.90
2023-04-12T11:28:35.169Z,1.60
2023-04-12T11:31:07.539Z,1.43
2023-04-12T11:33:37.204Z,1.80
2023-04-12T11:36:07.202Z,1.67
2023-04-12T11:38:36.196Z,1.67
2023-04-12T11:41:04.843Z,1.60
2023-04-12T11:43:32.900Z,1.80
2023-04-12T11:46:01.256Z,1.47
2023-04-12T11:48:30.786Z,1.20
2023-04-12T11:51:10.369Z,1.80
2023-04-12T11:53:40.212Z,1.33
2023-04-12T11:56:11.714Z,1.43
2023-04-12T11:58:39.680Z,1.43
2023-04-12T12:01:07.701Z,1.67
2023-04-12T12:03:37.401Z,1.40
2023-04-12T12:06:06.356Z,1.50
2023-04-12T12:08:35.002Z,1.47
2023-04-12T12:11:07.957Z,1.53
2023-04-12T12:13:47.124Z,1.37
2023-04-12T12:16:15.314Z,1.40
2023-04-12T12:18:45.446Z,1.40
2023-04-12T12:21:14.801Z,1.40
2023-04-12T12:23:44.288Z,1.20
2023-04-12T12:26:21.126Z,1.30
2023-04-12T12:28:51.498Z,1.43
2023-04-12T12:31:21.425Z,1.20
2023-04-12T12:33:52.642Z,1.30
2023-04-12T12:36:20.958Z,1.77
2023-04-12T12:38:51.385Z,1.63
2023-04-12T12:41:20.488Z,1.37
2023-04-12T12:43:48.601Z,1.03
2023-04-12T12:46:17.607Z,1.30
2023-04-12T12:48:46.231Z,1.27
2023-04-12T12:51:17.835Z,1.50
2023-04-12T12:53:45.839Z,2.20
2023-04-12T12:56:14.781Z,1.20
2023-04-12T12:58:43.154Z,1.37
2023-04-12T13:01:11.376Z,1.53
2023-04-12T13:03:39.456Z,2.17
2023-04-12T13:06:08.328Z,1.23
2023-04-12T13:08:37.703Z,1.17
2023-04-12T13:11:06.016Z,1.50
2023-04-12T13:13:33.933Z,1.60
2023-04-12T13:16:01.922Z,1.40
2023-04-12T13:18:29.917Z,1.57
2023-04-12T13:20:57.821Z,1.40
2023-04-12T13:23:25.804Z,1.80
2023-04-12T13:25:55.388Z,1.50
2023-04-12T13:28:24.419Z,1.90
2023-04-12T13:30:52.681Z,2.20
2023-04-12T13:33:22.078Z,3.37
2023-04-12T13:35:50.576Z,1.77
2023-04-12T13:38:18.536Z,1.70
2023-04-12T13:40:46.853Z,1.80
2023-04-12T13:43:16.675Z,1.40
2023-04-12T13:45:44.998Z,2.10
2023-04-12T13:48:13.025Z,1.83
2023-04-12T13:50:40.976Z,1.80
2023-04-12T13:53:08.993Z,1.77
2023-04-12T13:55:36.961Z,1.90
2023-04-12T13:58:04.854Z,1.80
2023-04-12T14:00:34.244Z,1.70
2023-04-12T14:03:02.586Z,2.00
2023-04-12T14:05:31.183Z,1.90
2023-04-12T14:07:59.151Z,1.47
2023-04-12T14:10:27.069Z,1.80
2023-04-12T14:12:54.947Z,1.83
2023-04-12T14:15:22.920Z,2.40
2023-04-12T14:17:52.606Z,2.77
2023-04-12T14:20:20.810Z,1.80
2023-04-12T14:22:48.729Z,1.77
2023-04-12T14:25:16.760Z,2.13
2023-04-12T14:27:45.968Z,2.03
2023-04-12T14:30:15.482Z,2.23
2023-04-12T14:32:45.941Z,1.97
2023-04-12T14:35:16.960Z,1.90
2023-04-12T14:37:45.754Z,1.60
2023-04-12T14:40:15.377Z,2.00
2023-04-12T14:42:43.345Z,2.23
2023-04-12T14:45:12.499Z,2.30
2023-04-12T14:47:41.028Z,2.43
2023-04-12T14:50:09.545Z,2.50
2023-04-12T14:52:38.830Z,1.97
2023-04-12T14:55:07.946Z,1.97
2023-04-12T14:57:35.936Z,1.90
2023-04-12T15:00:06.138Z,2.37
2023-04-12T15:02:34.291Z,2.00
2023-04-12T15:05:07.120Z,2.20
2023-04-12T15:07:35.375Z,2.60
2023-04-12T15:10:05.377Z,2.10
2023-04-12T15:12:35.450Z,2.10
2023-04-12T15:15:06.176Z,2.20
2023-04-12T15:17:35.195Z,1.90
2023-04-12T15:20:10.326Z,2.30
2023-04-12T15:22:38.287Z,2.10
2023-04-12T15:25:10.126Z,2.20
2023-04-12T15:27:38.105Z,2.40
2023-04-12T15:30:09.789Z,2.33
2023-04-12T15:32:39.798Z,2.17
2023-04-12T15:35:25.165Z,1.90
2023-04-12T15:37:55.245Z,2.00
2023-04-12T15:40:25.068Z,2.10
2023-04-12T15:42:53.020Z,1.97
2023-04-12T15:45:20.995Z,2.00
2023-04-12T15:47:49.006Z,2.03
2023-04-12T15:50:17.156Z,2.03
2023-04-12T15:52:45.066Z,2.33
2023-04-12T15:55:13.032Z,1.83
2023-04-12T15:57:44.253Z,2.77
2023-04-12T16:00:21.140Z,2.10
2023-04-12T16:02:54.002Z,2.20
2023-04-12T16:05:22.363Z,2.07
2023-04-12T16:07:51.190Z,2.13
2023-04-12T16:10:21.193Z,2.47
2023-04-12T16:12:51.039Z,2.70
2023-04-12T16:15:19.573Z,2.83
2023-04-12T16:17:48.307Z,2.30
2023-04-12T16:20:21.506Z,2.60
2023-04-12T16:22:50.095Z,2.83
2023-04-12T16:25:18.056Z,2.33
2023-04-12T16:27:46.111Z,2.60
2023-04-12T16:30:18.334Z,2.40
2023-04-12T16:32:47.710Z,3.10
2023-04-12T16:35:16.117Z,2.90
2023-04-12T16:37:44.708Z,2.90
2023-04-12T16:40:13.439Z,4.87
2023-04-12T16:42:41.928Z,7.00
2023-04-12T16:45:11.045Z,3.27
2023-04-12T16:47:41.069Z,2.70
2023-04-12T16:50:09.573Z,2.20
2023-04-12T16:52:38.220Z,2.77
2023-04-12T16:55:07.123Z,3.07
2023-04-12T16:57:35.045Z,2.53
2023-04-12T17:00:14.184Z,4.10
2023-04-12T17:02:43.603Z,3.70
2023-04-12T17:05:13.775Z,2.87
2023-04-12T17:07:43.105Z,3.20
2023-04-12T17:10:11.390Z,2.83
2023-04-12T17:12:39.337Z,3.43
2023-04-12T17:15:08.329Z,2.33
2023-04-12T17:17:36.453Z,2.20
2023-04-12T17:20:10.557Z,2.63
2023-04-12T17:22:38.723Z,2.43
2023-04-12T17:25:07.180Z,3.33
2023-04-12T17:27:35.428Z,3.17
2023-04-12T17:30:03.983Z,2.90
2023-04-12T17:32:32.796Z,4.63
2023-04-12T17:35:00.804Z,5.53
2023-04-12T17:37:30.303Z,8.63
2023-04-12T17:39:58.236Z,8.20
2023-04-12T17:42:26.303Z,9.03
2023-04-12T17:44:54.389Z,7.77
2023-04-12T17:47:23.133Z,5.10
2023-04-12T17:49:51.196Z,4.77
2023-04-12T17:52:19.285Z,2.63
2023-04-12T17:54:48.561Z,2.73
2023-04-12T17:57:16.481Z,3.00
2023-04-12T17:59:44.387Z,2.80
2023-04-12T18:02:12.465Z,2.63
2023-04-12T18:04:41.222Z,4.83
2023-04-12T18:07:09.923Z,2.87
2023-04-12T18:09:38.451Z,4.20
2023-04-12T18:12:07.871Z,4.87
2023-04-12T18:14:36.925Z,3.43
2023-04-12T18:17:04.831Z,4.13
2023-04-12T18:19:32.741Z,3.80
2023-04-12T18:22:00.761Z,3.10
2023-04-12T18:24:28.691Z,3.17
2023-04-12T18:26:57.132Z,3.50
2023-04-12T18:29:26.526Z,3.00
2023-04-12T18:31:54.563Z,3.10
2023-04-12T18:34:22.920Z,3.13
2023-04-12T18:36:50.806Z,2.77
2023-04-12T18:39:20.422Z,2.73
2023-04-12T18:41:48.294Z,4.90
2023-04-12T18:44:19.218Z,3.20
2023-04-12T18:46:48.748Z,3.10
2023-04-12T18:49:17.033Z,2.70
2023-04-12T18:51:45.350Z,2.10
2023-04-12T18:54:15.169Z,2.50
2023-04-12T18:56:43.313Z,2.40
2023-04-12T18:59:15.996Z,2.20
2023-04-12T19:01:44.075Z,1.60
2023-04-12T19:04:16.365Z,1.50
2023-04-12T19:06:44.614Z,1.00
2023-04-12T19:09:12.553Z,1.30
2023-04-12T19:11:40.565Z,2.83
2023-04-12T19:14:08.522Z,2.27
2023-04-12T19:16:36.782Z,1.60
2023-04-12T19:19:04.865Z,1.00
2023-04-12T19:21:35.478Z,1.30
2023-04-12T19:24:03.440Z,1.07
2023-04-12T19:26:31.973Z,1.30
2023-04-12T19:28:59.882Z,1.70
2023-04-12T19:31:27.832Z,1.73
2023-04-12T19:33:56.632Z,1.10
2023-04-12T19:36:24.958Z,1.17
2023-04-12T19:38:54.324Z,1.20
2023-04-12T19:41:23.695Z,1.37
2023-04-12T19:43:51.619Z,1.30
2023-04-12T19:46:22.730Z,2.30
2023-04-12T19:48:51.413Z,1.67
2023-04-12T19:51:19.646Z,1.57
2023-04-12T19:53:50.128Z,1.60
2023-04-12T19:56:20.353Z,2.27
2023-04-12T19:58:49.525Z,1.37
2023-04-12T20:01:17.546Z,1.93
2023-04-12T20:03:45.662Z,1.77
2023-04-12T20:06:13.587Z,1.20
2023-04-12T20:08:41.750Z,1.20
2023-04-12T20:11:09.796Z,1.40
2023-04-12T20:13:39.829Z,1.20
2023-04-12T20:16:10.023Z,1.50
2023-04-12T20:18:37.999Z,1.07
2023-04-12T20:21:09.917Z,0.93
2023-04-12T20:23:38.027Z,1.37
2023-04-12T20:26:06.593Z,1.10
2023-04-12T20:28:34.541Z,1.50
2023-04-12T20:31:04.542Z,1.37
2023-04-12T20:33:35.139Z,1.47
2023-04-12T20:36:03.436Z,1.20
2023-04-12T20:38:31.355Z,1.27
2023-04-12T20:40:59.352Z,1.20
2023-04-12T20:43:27.383Z,1.17
2023-04-12T20:45:55.361Z,1.10
2023-04-12T20:48:24.768Z,1.37
2023-04-12T20:50:52.666Z,1.23
2023-04-12T20:53:21.076Z,1.23
2023-04-12T20:55:49.022Z,1.40
2023-04-12T20:58:17.979Z,1.40
2023-04-12T21:00:46.792Z,1.47
2023-04-12T21:03:15.017Z,1.43
2023-04-12T21:05:46.098Z,1.60
2023-04-12T21:08:14.030Z,1.20
2023-04-12T21:10:42.849Z,1.53
2023-04-12T21:13:11.966Z,1.40
2023-04-12T21:15:40.457Z,1.20
2023-04-12T21:18:08.524Z,0.90
2023-04-12T21:20:36.457Z,1.30
2023-04-12T21:23:07.493Z,1.07
2023-04-12T21:25:35.513Z,1.40
2023-04-12T21:28:03.541Z,1.50
2023-04-12T21:30:31.471Z,1.00
2023-04-12T21:32:59.393Z,1.67
2023-04-12T21:35:27.339Z,1.57
2023-04-12T21:37:56.058Z,1.20
2023-04-12T21:40:25.827Z,1.50
2023-04-12T21:42:54.403Z,1.40
2023-04-12T21:45:22.526Z,1.27
2023-04-12T21:47:50.661Z,1.20
2023-04-12T21:50:18.809Z,1.40
2023-04-12T21:52:47.386Z,1.50
2023-04-12T21:55:15.296Z,1.90
2023-04-12T21:57:44.756Z,1.40
2023-04-12T22:00:14.087Z,1.67
2023-04-12T22:02:42.196Z,1.77
2023-04-12T22:05:10.860Z,1.40
2023-04-12T22:07:41.151Z,1.60
2023-04-12T22:10:12.056Z,1.73
2023-04-12T22:12:40.297Z,1.73
2023-04-12T22:15:11.962Z,1.50
2023-04-12T22:17:40.815Z,1.87
2023-04-12T22:20:11.153Z,1.87
2023-04-12T22:22:39.085Z,1.70
2023-04-12T22:25:11.940Z,1.60
2023-04-12T22:27:40.104Z,1.63
2023-04-12T22:30:11.617Z,1.70
2023-04-12T22:32:40.074Z,1.47
2023-04-12T22:35:09.249Z,1.70
2023-04-12T22:37:37.760Z,1.63
2023-04-12T22:40:11.738Z,1.57
2023-04-12T22:42:46.704Z,1.70
2023-04-12T22:45:16.689Z,1.40
2023-04-12T22:47:44.959Z,1.30
2023-04-12T22:50:13.709Z,1.60
2023-04-12T22:52:42.106Z,1.40
2023-04-12T22:55:12.704Z,1.97
2023-04-12T22:57:40.682Z,1.50
2023-04-12T23:00:15.010Z,1.80
2023-04-12T23:02:46.441Z,1.77
2023-04-12T23:05:14.757Z,1.77
2023-04-12T23:07:43.475Z,1.90
2023-04-12T23:10:12.263Z,1.90
2023-04-12T23:12:40.323Z,2.27
2023-04-12T23:15:09.403Z,1.23
2023-04-12T23:17:37.805Z,1.60
2023-04-12T23:20:13.306Z,1.80
2023-04-12T23:22:57.215Z,1.50
2023-04-12T23:25:38.940Z,1.67
2023-04-12T23:28:12.776Z,2.03
2023-04-12T23:30:42.650Z,1.73
2023-04-12T23:33:18.113Z,1.50
2023-04-12T23:35:49.477Z,1.40
2023-04-12T23:38:24.247Z,2.03
2023-04-12T23:40:54.072Z,1.83
2023-04-12T23:43:22.457Z,1.70
2023-04-12T23:45:50.875Z,2.27
2023-04-12T23:48:19.027Z,1.93
2023-04-12T23:50:48.802Z,2.50
2023-04-12T23:53:17.335Z,3.23
2023-04-12T23:55:48.068Z,2.73
2023-04-12T23:58:16.338Z,2.87
